Time;durP1;ratioP1;P1;durP2;ratioP2;P2;SDS_P1;SDS_P2;PMS_P1;PMS_P2;Temp;Humidity;BMP_temperature;BMP_pressure;BME280_temperature;BME280_humidity;BME280_pressure;Samples;Min_cycle;Max_cycle;Signal;HPM_P1;HPM_P2
2021/03/16 00:01:49;;;;;;;5.57;2.80;;;;;;;4.32;86.29;96317.59;5038670;28;20809;-85
2021/03/16 00:04:17;;;;;;;4.60;2.83;;;;;;;4.32;86.48;96320.25;5038496;28;20936;-86
2021/03/16 00:06:43;;;;;;;4.63;2.13;;;;;;;4.37;86.37;96315.38;5038305;28;20910;-85
2021/03/16 00:09:10;;;;;;;6.80;2.53;;;;;;;4.38;85.44;96333.59;5037875;28;20509;-85
2021/03/16 00:11:37;;;;;;;6.83;2.80;;;;;;;4.40;85.26;96330.41;5038395;28;20570;-86
2021/03/16 00:14:03;;;;;;;6.33;2.67;;;;;;;4.35;84.67;96323.16;5038780;28;20830;-86
2021/03/16 00:16:30;;;;;;;6.77;3.23;;;;;;;4.31;85.21;96324.16;5038923;28;20430;-86
2021/03/16 00:18:56;;;;;;;13.83;3.33;;;;;;;4.24;85.33;96327.38;5038441;28;20944;-86
2021/03/16 00:21:22;;;;;;;5.37;2.90;;;;;;;4.30;85.52;96335.34;5039044;28;20481;-85
2021/03/16 00:23:48;;;;;;;10.87;3.40;;;;;;;4.33;85.25;96334.34;5038206;28;20451;-85
2021/03/16 00:26:14;;;;;;;7.67;3.17;;;;;;;4.15;85.51;96330.38;5038397;28;21047;-85
2021/03/16 00:28:40;;;;;;;7.80;3.10;;;;;;;4.17;86.30;96324.50;5037979;28;20537;-85
2021/03/16 00:31:07;;;;;;;10.10;2.70;;;;;;;4.25;86.05;96328.09;5038207;28;20482;-85
2021/03/16 00:33:34;;;;;;;9.20;3.33;;;;;;;4.31;85.59;96336.78;5038676;28;20523;-85
2021/03/16 00:36:00;;;;;;;4.60;2.67;;;;;;;4.32;85.81;96338.25;5038562;28;20450;-85
2021/03/16 00:38:26;;;;;;;6.53;2.60;;;;;;;4.32;85.56;96346.97;5037840;28;20447;-86
2021/03/16 00:40:52;;;;;;;11.63;2.80;;;;;;;4.34;85.67;96343.81;5037921;28;20485;-86
2021/03/16 00:43:18;;;;;;;4.90;2.93;;;;;;;4.37;85.59;96350.81;5038726;28;20542;-86
2021/03/16 00:45:44;;;;;;;3.90;2.40;;;;;;;4.36;85.02;96343.28;5037922;28;20578;-85
2021/03/16 00:48:15;;;;;;;2.80;2.50;;;;;;;4.28;84.88;96349.19;5037585;28;21002;-86
2021/03/16 00:50:42;;;;;;;10.63;2.67;;;;;;;4.31;84.69;96348.19;5037651;28;20414;-85
2021/03/16 00:53:08;;;;;;;7.30;3.57;;;;;;;4.38;84.67;96354.94;5038454;28;20578;-85
2021/03/16 00:55:34;;;;;;;8.07;3.07;;;;;;;4.32;84.99;96341.63;5037342;28;20401;-85
2021/03/16 00:58:00;;;;;;;7.90;3.00;;;;;;;4.38;84.16;96344.25;5038321;28;20451;-86
2021/03/16 01:00:26;;;;;;;5.77;2.77;;;;;;;4.31;82.84;96344.81;5037860;28;20474;-85
2021/03/16 01:02:53;;;;;;;4.90;2.60;;;;;;;4.22;82.86;96343.19;5038330;28;20514;-86
2021/03/16 01:05:19;;;;;;;7.63;3.00;;;;;;;4.28;81.93;96345.81;5038469;28;20453;-86
2021/03/16 01:07:46;;;;;;;4.83;2.43;;;;;;;4.37;81.47;96347.41;5037576;28;20471;-86
2021/03/16 01:10:14;;;;;;;6.90;2.50;;;;;;;4.31;81.51;96342.84;5037797;28;20540;-85
2021/03/16 01:12:40;;;;;;;12.23;2.93;;;;;;;4.29;80.27;96349.94;5037837;28;20569;-86
2021/03/16 01:15:08;;;;;;;8.03;2.33;;;;;;;4.19;80.30;96357.53;5037460;28;20436;-86
2021/03/16 01:17:34;;;;;;;7.53;2.80;;;;;;;4.18;81.02;96345.38;5037371;28;20993;-85
2021/03/16 01:20:00;;;;;;;6.50;2.00;;;;;;;4.14;81.07;96355.59;5037654;28;20531;-86
2021/03/16 01:22:26;;;;;;;8.27;3.27;;;;;;;4.07;80.63;96352.75;5036879;28;20525;-84
2021/03/16 01:24:53;;;;;;;8.30;2.33;;;;;;;4.03;81.29;96355.69;5037191;28;20424;-85
2021/03/16 01:27:19;;;;;;;7.10;2.13;;;;;;;4.04;80.80;96362.47;5037701;28;20581;-85
2021/03/16 01:29:45;;;;;;;3.33;2.23;;;;;;;4.11;81.11;96361.22;5036812;28;20495;-85
2021/03/16 01:32:11;;;;;;;13.50;3.07;;;;;;;4.13;80.27;96364.13;5037321;28;20485;-84
2021/03/16 01:34:37;;;;;;;6.50;2.10;;;;;;;4.09;81.34;96361.00;5037753;28;20954;-84
2021/03/16 01:37:03;;;;;;;7.03;2.13;;;;;;;4.19;81.22;96362.88;5037305;28;20513;-85
2021/03/16 01:39:29;;;;;;;10.47;3.00;;;;;;;4.15;81.20;96370.41;5036984;28;20475;-84
2021/03/16 01:41:56;;;;;;;5.80;2.70;;;;;;;4.23;80.71;96367.91;5038214;28;20769;-84
2021/03/16 01:44:22;;;;;;;7.40;2.80;;;;;;;4.21;81.09;96376.44;5037449;28;20447;-85
2021/03/16 01:46:48;;;;;;;8.87;3.27;;;;;;;4.27;81.56;96366.44;5037593;28;20459;-85
2021/03/16 01:49:15;;;;;;;9.33;3.00;;;;;;;4.24;81.69;96372.78;5036462;28;20413;-85
2021/03/16 01:51:41;;;;;;;6.90;2.20;;;;;;;4.23;82.45;96362.56;5036402;28;20540;-85
2021/03/16 01:54:07;;;;;;;4.40;2.83;;;;;;;4.28;82.37;96365.22;5037472;28;20537;-85
2021/03/16 01:56:38;;;;;;;5.00;2.47;;;;;;;4.22;83.02;96369.88;5037471;28;20825;-86
2021/03/16 01:59:05;;;;;;;12.27;2.80;;;;;;;4.17;82.90;96362.63;5037590;28;20417;-86
2021/03/16 02:01:31;;;;;;;4.77;2.67;;;;;;;4.05;84.57;96366.59;5037190;28;21015;-86
2021/03/16 02:03:57;;;;;;;7.50;2.77;;;;;;;4.16;84.19;96374.53;5037630;28;20420;-87
2021/03/16 02:06:32;;;;;;;8.60;2.60;;;;;;;4.20;84.47;96374.25;5037414;28;20502;-86
2021/03/16 02:09:07;;;;;;;10.10;3.33;;;;;;;4.17;85.06;96375.25;5037173;28;20420;-86
2021/03/16 02:11:39;;;;;;;7.97;3.30;;;;;;;4.22;85.02;96372.56;5037508;28;20508;-86
2021/03/16 02:14:14;;;;;;;8.30;3.30;;;;;;;4.14;85.20;96376.97;5037315;28;20503;-86
2021/03/16 02:16:46;;;;;;;4.50;2.83;;;;;;;4.10;85.37;96370.47;5037117;28;20532;-86
2021/03/16 02:19:25;;;;;;;7.07;2.30;;;;;;;4.09;85.47;96372.41;5037648;28;20432;-86
2021/03/16 02:21:52;;;;;;;11.83;2.83;;;;;;;4.13;84.63;96372.88;5036882;28;20434;-86
2021/03/16 02:24:31;;;;;;;7.23;2.90;;;;;;;4.08;85.12;96370.94;5038296;28;20522;-86
2021/03/16 02:27:11;;;;;;;13.47;3.20;;;;;;;4.09;85.40;96377.75;5037214;28;20558;-86
2021/03/16 02:29:43;;;;;;;6.70;3.47;;;;;;;4.09;85.63;96377.75;5038928;28;20398;-86
2021/03/16 02:32:13;;;;;;;7.30;2.93;;;;;;;4.08;85.94;96373.59;5037921;28;20467;-86
2021/03/16 02:34:41;;;;;;;4.63;2.27;;;;;;;3.92;85.78;96376.38;5041819;28;20462;-85
2021/03/16 02:37:09;;;;;;;5.97;3.10;;;;;;;3.91;86.37;96380.28;5041068;28;20440;-83
2021/03/16 02:39:37;;;;;;;10.30;3.93;;;;;;;3.89;86.59;96377.38;5041142;28;20405;-85
2021/03/16 02:42:05;;;;;;;4.73;2.40;;;;;;;3.98;86.12;96380.47;5041177;28;20406;-85
2021/03/16 02:44:34;;;;;;;6.10;3.47;;;;;;;3.97;86.15;96384.38;5061784;28;20417;-85
2021/03/16 02:47:03;;;;;;;4.50;2.50;;;;;;;3.97;86.32;96384.38;5061203;28;20455;-84
2021/03/16 02:49:29;;;;;;;9.07;2.73;;;;;;;4.04;85.72;96381.16;5061032;28;20404;-84
2021/03/16 02:51:56;;;;;;;6.70;2.27;;;;;;;4.06;86.05;96384.06;5061256;28;20445;-84
2021/03/16 02:54:24;;;;;;;7.83;3.50;;;;;;;4.10;86.09;96384.50;5061646;28;20435;-85
2021/03/16 02:56:52;;;;;;;5.90;2.80;;;;;;;4.03;86.61;96390.41;5061610;28;20502;-85
2021/03/16 02:59:19;;;;;;;7.27;2.80;;;;;;;3.95;87.04;96386.78;5057126;28;20463;-85
2021/03/16 03:01:48;;;;;;;8.57;3.50;;;;;;;3.94;87.38;96390.69;5049348;28;20972;-85
2021/03/16 03:04:15;;;;;;;9.50;3.80;;;;;;;3.91;87.71;96394.34;5040463;28;20529;-86
2021/03/16 03:06:43;;;;;;;7.60;3.20;;;;;;;3.90;87.97;96386.84;5059709;28;20525;-85
2021/03/16 03:09:12;;;;;;;17.00;3.90;;;;;;;3.76;88.62;96384.00;5044755;28;20451;-85
2021/03/16 03:11:38;;;;;;;6.70;3.10;;;;;;;3.82;88.94;96385.91;5039690;28;20539;-85
2021/03/16 03:14:07;;;;;;;7.30;2.80;;;;;;;3.80;89.12;96386.41;5039547;28;20444;-86
2021/03/16 03:16:33;;;;;;;7.30;3.97;;;;;;;3.82;89.33;96377.91;5040113;28;20497;-86
2021/03/16 03:19:00;;;;;;;7.00;3.83;;;;;;;3.81;89.19;96371.84;5039549;28;20523;-85
2021/03/16 03:21:33;;;;;;;10.60;3.30;;;;;;;3.84;88.92;96370.84;5038882;28;20413;-85
2021/03/16 03:24:04;;;;;;;6.13;3.17;;;;;;;3.76;89.06;96391.25;5039473;28;20454;-85
2021/03/16 03:26:35;;;;;;;8.63;3.17;;;;;;;3.83;88.27;96401.41;5039126;28;20475;-85
2021/03/16 03:29:02;;;;;;;10.97;2.47;;;;;;;3.83;87.56;96408.69;5039230;28;20581;-85
2021/03/16 03:31:31;;;;;;;10.03;3.50;;;;;;;3.82;88.17;96416.00;5038461;28;21027;-84
2021/03/16 03:33:58;;;;;;;13.23;2.50;;;;;;;3.75;88.41;96413.84;5038775;28;21015;-85
2021/03/16 03:36:25;;;;;;;5.17;2.77;;;;;;;3.85;88.11;96420.34;5038865;28;20540;-85
2021/03/16 03:38:54;;;;;;;4.33;2.90;;;;;;;3.82;87.65;96413.34;5038705;28;20936;-86
2021/03/16 03:41:21;;;;;;;8.20;2.80;;;;;;;3.81;87.32;96421.81;5038955;28;20463;-85
2021/03/16 03:43:48;;;;;;;8.97;3.20;;;;;;;3.82;87.60;96421.34;5038622;28;20446;-86
2021/03/16 03:46:17;;;;;;;6.77;2.83;;;;;;;3.80;87.68;96423.75;5038841;28;20467;-86
2021/03/16 03:48:44;;;;;;;8.10;2.53;;;;;;;3.74;88.63;96428.41;5038668;28;20431;-86
2021/03/16 03:51:10;;;;;;;12.30;2.70;;;;;;;3.70;88.39;96420.66;5038126;28;20523;-85
2021/03/16 03:53:39;;;;;;;5.70;2.57;;;;;;;3.76;88.17;96426.69;5037747;28;20475;-85
2021/03/16 03:56:07;;;;;;;5.23;2.33;;;;;;;3.76;87.47;96423.28;5038697;28;20426;-86
2021/03/16 03:58:38;;;;;;;8.23;2.80;;;;;;;3.74;87.30;96423.78;5038584;28;20490;-86
2021/03/16 04:01:06;;;;;;;5.80;3.17;;;;;;;3.73;87.12;96434.94;5038327;28;20486;-85
2021/03/16 04:03:33;;;;;;;5.80;2.07;;;;;;;3.77;86.63;96435.41;5038385;28;20512;-86
2021/03/16 04:06:00;;;;;;;6.33;2.67;;;;;;;3.70;85.99;96433.25;5038148;28;20442;-86
2021/03/16 04:08:27;;;;;;;3.23;2.30;;;;;;;3.69;86.15;96445.91;5038381;28;20534;-86
2021/03/16 04:10:53;;;;;;;7.33;2.93;;;;;;;3.68;86.37;96446.38;5038420;28;20884;-86
2021/03/16 04:13:21;;;;;;;5.00;2.10;;;;;;;3.75;86.12;96453.88;5038166;28;20554;-86
2021/03/16 04:15:48;;;;;;;7.00;2.43;;;;;;;3.78;85.92;96450.22;5038456;28;20467;-87
2021/03/16 04:18:14;;;;;;;5.87;2.50;;;;;;;3.64;86.85;96451.22;5038102;28;20451;-86
2021/03/16 04:20:40;;;;;;;9.07;1.70;;;;;;;3.65;86.14;96455.34;5038586;28;20470;-86
2021/03/16 04:23:06;;;;;;;6.10;2.00;;;;;;;3.70;86.05;96458.00;5037876;28;20473;-85
2021/03/16 04:25:33;;;;;;;7.40;2.43;;;;;;;3.74;86.32;96463.09;5038664;28;20451;-85
2021/03/16 04:27:59;;;;;;;10.60;2.87;;;;;;;3.71;86.36;96469.41;5038998;28;20510;-85
2021/03/16 04:30:26;;;;;;;8.20;2.20;;;;;;;3.76;86.98;96460.63;5038435;28;20522;-85
2021/03/16 04:32:52;;;;;;;7.87;2.50;;;;;;;3.71;87.17;96467.47;5038393;28;20532;-86
2021/03/16 04:35:18;;;;;;;6.83;2.60;;;;;;;3.63;87.31;96471.84;5042295;28;20422;-86
2021/03/16 04:37:44;;;;;;;9.73;2.70;;;;;;;3.70;87.81;96470.59;5038770;28;21046;-86
2021/03/16 04:40:12;;;;;;;5.33;1.83;;;;;;;3.68;87.49;96478.38;5037941;28;20518;-85
2021/03/16 04:42:38;;;;;;;10.83;2.73;;;;;;;3.68;87.61;96473.06;5038043;28;20485;-86
2021/03/16 04:45:05;;;;;;;5.57;2.00;;;;;;;3.63;87.60;96473.81;5037888;28;20653;-86
2021/03/16 04:47:32;;;;;;;9.57;2.80;;;;;;;3.71;87.05;96472.06;5038245;28;20991;-86
2021/03/16 04:49:58;;;;;;;3.93;1.90;;;;;;;3.71;86.84;96472.06;5037614;28;20560;-86
2021/03/16 04:52:24;;;;;;;9.63;2.60;;;;;;;3.61;87.17;96476.22;5037593;28;20479;-86
2021/03/16 04:54:50;;;;;;;6.10;3.07;;;;;;;3.61;87.60;96479.63;5037526;28;20436;-85
2021/03/16 04:57:16;;;;;;;5.53;2.20;;;;;;;3.66;86.63;96486.16;5037140;28;20437;-85
2021/03/16 04:59:42;;;;;;;4.80;1.77;;;;;;;3.63;85.87;96476.47;5037487;28;20511;-85
2021/03/16 05:02:09;;;;;;;8.17;2.63;;;;;;;3.56;86.40;96485.72;5037647;28;20468;-85
2021/03/16 05:04:35;;;;;;;3.63;2.07;;;;;;;3.61;86.43;96487.63;5037518;28;20897;-85
2021/03/16 05:07:02;;;;;;;6.13;2.17;;;;;;;3.59;85.96;96479.41;5037600;28;20520;-85
2021/03/16 05:09:28;;;;;;;5.10;1.77;;;;;;;3.48;86.26;96479.41;5037840;28;20439;-86
2021/03/16 05:11:54;;;;;;;7.60;2.60;;;;;;;3.41;87.09;96485.28;5038000;28;20556;-85
2021/03/16 05:14:20;;;;;;;14.37;2.63;;;;;;;3.41;87.80;96485.28;5038251;28;20919;-86
2021/03/16 05:16:46;;;;;;;9.03;2.37;;;;;;;3.44;87.25;96491.56;5037947;28;20542;-86
2021/03/16 05:19:12;;;;;;;5.17;2.13;;;;;;;3.52;86.20;96495.91;5037909;28;20419;-86
2021/03/16 05:21:39;;;;;;;6.40;1.67;;;;;;;3.48;86.89;96500.03;5038444;28;20850;-86
2021/03/16 05:24:06;;;;;;;8.50;2.30;;;;;;;3.54;86.80;96506.09;5037962;28;20947;-85
2021/03/16 05:26:32;;;;;;;7.53;2.33;;;;;;;3.53;86.72;96507.28;5038072;28;20455;-85
2021/03/16 05:28:58;;;;;;;4.93;2.33;;;;;;;3.56;86.65;96501.72;5038475;28;20518;-85
2021/03/16 05:31:24;;;;;;;10.00;2.93;;;;;;;3.63;86.54;96511.16;5038741;28;20454;-85
2021/03/16 05:33:50;;;;;;;11.50;2.47;;;;;;;3.53;86.57;96508.03;5038126;28;20562;-86
2021/03/16 05:36:16;;;;;;;7.83;2.10;;;;;;;3.64;86.28;96518.66;5038739;28;20465;-85
2021/03/16 05:38:43;;;;;;;2.30;1.73;;;;;;;3.58;86.62;96527.88;5038151;28;20443;-86
2021/03/16 05:41:10;;;;;;;6.40;2.33;;;;;;;3.66;86.63;96531.53;5038283;28;20915;-86
2021/03/16 05:43:36;;;;;;;7.90;2.17;;;;;;;3.66;86.06;96536.84;5037766;28;20526;-86
2021/03/16 05:46:03;;;;;;;4.20;1.60;;;;;;;3.68;85.54;96540.47;5038227;28;20460;-88
2021/03/16 05:48:29;;;;;;;7.97;2.27;;;;;;;3.75;85.29;96537.31;5038612;28;20459;-87
2021/03/16 05:50:59;;;;;;;4.90;2.13;;;;;;;3.70;85.08;96540.72;5038836;28;20495;-87
2021/03/16 05:53:26;;;;;;;3.73;2.00;;;;;;;3.60;85.45;96546.81;5038373;28;20486;-86
2021/03/16 05:55:54;;;;;;;5.70;2.37;;;;;;;3.58;86.21;96547.28;5038658;28;20549;-86
2021/03/16 05:58:20;;;;;;;11.77;2.67;;;;;;;3.65;85.91;96548.72;5038983;28;20550;-86
2021/03/16 06:00:46;;;;;;;7.13;2.40;;;;;;;3.71;85.06;96546.78;5038341;28;20984;-86
2021/03/16 06:03:12;;;;;;;9.17;3.00;;;;;;;3.69;85.93;96546.53;5038385;28;20450;-86
2021/03/16 06:05:38;;;;;;;9.13;2.20;;;;;;;3.58;86.61;96557.22;5039585;28;20411;-86
2021/03/16 06:08:05;;;;;;;7.90;2.70;;;;;;;3.62;85.79;96555.03;5041078;28;20530;-87
2021/03/16 06:10:34;;;;;;;6.20;2.40;;;;;;;3.66;86.22;96555.53;5043148;28;20588;-86
2021/03/16 06:13:10;;;;;;;5.40;2.50;;;;;;;3.69;86.05;96560.63;5042264;28;20489;-86
2021/03/16 06:15:36;;;;;;;9.70;2.10;;;;;;;3.66;84.78;96560.88;5042602;28;20431;-85
2021/03/16 06:18:02;;;;;;;3.53;2.03;;;;;;;3.70;85.30;96561.31;5043014;28;20647;-86
2021/03/16 06:20:30;;;;;;;4.50;1.90;;;;;;;3.62;85.76;96568.38;5042558;28;20514;-87
2021/03/16 06:23:08;;;;;;;15.63;3.10;;;;;;;3.69;85.60;96565.22;5043285;28;20432;-85
2021/03/16 06:25:36;;;;;;;14.07;3.07;;;;;;;3.73;85.80;96560.34;5041883;28;20549;-86
2021/03/16 06:28:03;;;;;;;3.07;1.90;;;;;;;3.81;85.59;96574.66;5042314;28;20459;-86
2021/03/16 06:30:30;;;;;;;18.60;3.20;;;;;;;3.81;85.40;96568.59;5043409;28;20612;-86
2021/03/16 06:32:56;;;;;;;12.23;4.00;;;;;;;3.77;85.97;96574.16;5042109;28;20491;-85
2021/03/16 06:35:23;;;;;;;7.17;2.50;;;;;;;3.83;85.71;96576.81;5042937;28;20489;-85
2021/03/16 06:38:01;;;;;;;5.73;2.70;;;;;;;3.82;85.75;96589.47;5060537;28;20475;-87
2021/03/16 06:40:31;;;;;;;10.37;3.37;;;;;;;3.79;86.22;96583.13;5061187;28;20421;-86
2021/03/16 06:43:05;;;;;;;5.37;3.37;;;;;;;3.94;85.82;96590.88;5061007;28;20457;-86
2021/03/16 06:45:33;;;;;;;14.87;4.23;;;;;;;3.93;85.47;96589.41;5052899;28;20480;-86
2021/03/16 06:48:00;;;;;;;8.07;2.57;;;;;;;4.04;85.74;96594.00;5042755;28;20454;-86
2021/03/16 06:50:29;;;;;;;4.27;3.13;;;;;;;4.11;85.09;96599.53;5042345;28;20538;-85
2021/03/16 06:52:57;;;;;;;18.33;3.20;;;;;;;4.35;84.35;96606.28;5042401;28;20512;-85
2021/03/16 06:55:23;;;;;;;5.10;2.20;;;;;;;4.65;86.99;96610.50;5041565;28;20482;-86
2021/03/16 06:57:49;;;;;;;7.30;2.50;;;;;;;4.37;83.71;96611.84;5041651;28;20525;-85
2021/03/16 07:00:17;;;;;;;6.17;2.57;;;;;;;4.30;83.73;96619.16;5041158;28;20475;-86
2021/03/16 07:02:44;;;;;;;8.60;2.70;;;;;;;4.32;84.06;96616.69;5042899;28;20962;-86
2021/03/16 07:05:12;;;;;;;13.03;3.63;;;;;;;4.32;84.02;96630.06;5041795;28;20440;-86
2021/03/16 07:07:39;;;;;;;11.83;3.43;;;;;;;4.41;84.32;96629.06;5045693;28;20543;-91
2021/03/16 07:10:07;;;;;;;7.47;2.87;;;;;;;4.31;83.88;96636.63;5045608;28;20561;-92
2021/03/16 07:12:34;;;;;;;12.93;3.43;;;;;;;4.20;84.83;96642.00;5045109;28;20501;-91
2021/03/16 07:15:02;;;;;;;5.87;3.20;;;;;;;4.17;84.97;96650.25;5044857;28;20521;-90
2021/03/16 07:17:28;;;;;;;10.03;3.13;;;;;;;4.24;86.02;96652.44;5044153;28;20487;-91
2021/03/16 07:20:02;;;;;;;10.47;2.30;;;;;;;4.08;87.12;96655.88;5044426;28;20450;-91
2021/03/16 07:22:36;;;;;;;6.20;3.10;;;;;;;4.14;87.51;96651.22;5044646;28;20474;-93
2021/03/16 07:25:12;;;;;;;18.40;5.80;;;;;;;4.12;87.58;96651.75;5045362;28;20799;-93
2021/03/16 07:27:41;;;;;;;5.27;2.03;;;;;;;4.20;87.57;96652.69;5043601;28;20470;-93
2021/03/16 07:30:09;;;;;;;8.30;2.90;;;;;;;4.13;87.93;96666.56;5045286;28;20466;-89
2021/03/16 07:32:36;;;;;;;10.97;3.17;;;;;;;3.95;88.78;96669.72;5044466;28;20476;-92
2021/03/16 07:35:04;;;;;;;11.23;3.20;;;;;;;3.69;90.56;96666.59;5044795;28;20451;-90
2021/03/16 07:37:31;;;;;;;9.27;3.40;;;;;;;3.70;91.13;96671.44;5047515;28;20460;-92
2021/03/16 07:40:02;;;;;;;22.10;3.77;;;;;;;3.70;91.49;96678.72;5044404;28;20470;-90
2021/03/16 07:42:29;;;;;;;7.63;3.13;;;;;;;3.78;92.09;96682.38;5043891;28;20423;-91
2021/03/16 07:44:55;;;;;;;9.47;3.30;;;;;;;3.90;91.59;96685.75;5043488;28;20518;-89
2021/03/16 07:47:33;;;;;;;7.60;2.97;;;;;;;4.00;90.42;96692.28;5044265;28;20475;-92
2021/03/16 07:50:01;;;;;;;6.70;2.90;;;;;;;3.88;90.83;96694.25;5027219;28;20475;-92
2021/03/16 07:52:28;;;;;;;11.27;5.10;;;;;;;3.98;90.59;96684.75;5027421;28;20480;-93
2021/03/16 07:54:55;;;;;;;14.23;3.33;;;;;;;4.15;90.16;96690.06;5023673;28;20512;-89
2021/03/16 07:57:29;;;;;;;11.20;2.93;;;;;;;4.31;89.06;96686.66;5024867;28;20487;-89
2021/03/16 08:00:00;;;;;;;9.83;2.90;;;;;;;4.51;88.93;96697.03;5023730;28;20448;-88
2021/03/16 08:02:27;;;;;;;13.40;3.00;;;;;;;4.68;88.00;96689.69;5023924;28;20411;-90
2021/03/16 08:04:54;;;;;;;5.67;3.37;;;;;;;4.87;85.99;96703.22;5026465;28;20459;-90
2021/03/16 08:07:23;;;;;;;11.20;3.77;;;;;;;4.97;85.83;96704.38;5027529;28;20448;-91
2021/03/16 08:09:52;;;;;;;8.23;3.70;;;;;;;5.01;84.01;96696.81;5035785;28;20436;-89
2021/03/16 08:12:19;;;;;;;6.87;3.10;;;;;;;5.01;84.77;96704.84;5046220;28;20578;-90
2021/03/16 08:14:45;;;;;;;8.63;2.80;;;;;;;4.91;84.16;96710.97;5047889;28;20438;-90
2021/03/16 08:17:12;;;;;;;6.30;3.23;;;;;;;4.89;84.28;96698.09;5045306;28;20513;-90
2021/03/16 08:19:39;;;;;;;7.00;3.03;;;;;;;4.83;84.92;96705.41;5043618;28;20411;-90
2021/03/16 08:22:05;;;;;;;13.10;3.30;;;;;;;4.85;84.29;96713.69;5045662;28;20463;-90
2021/03/16 08:24:37;;;;;;;13.60;3.40;;;;;;;4.74;85.37;96708.38;5046641;28;20752;-90
2021/03/16 08:27:08;;;;;;;10.30;3.60;;;;;;;4.81;84.80;96715.88;5045173;28;20936;-90
2021/03/16 08:29:35;;;;;;;7.83;3.30;;;;;;;4.80;83.68;96711.75;5046860;28;20408;-91
2021/03/16 08:32:01;;;;;;;9.83;3.60;;;;;;;4.73;83.76;96709.59;5048755;28;20469;-91
2021/03/16 08:34:29;;;;;;;8.63;3.43;;;;;;;4.78;83.71;96708.84;5044105;28;20522;-86
2021/03/16 08:36:55;;;;;;;11.73;3.60;;;;;;;4.84;82.98;96717.56;5041241;28;20542;-83
2021/03/16 08:39:24;;;;;;;9.80;3.37;;;;;;;4.85;84.30;96719.03;5040667;28;20428;-88
2021/03/16 08:41:55;;;;;;;12.53;3.90;;;;;;;4.86;83.75;96718.53;5040746;28;20485;-89
2021/03/16 08:44:22;;;;;;;15.83;3.70;;;;;;;4.85;82.96;96713.69;5048458;28;20478;-84
2021/03/16 08:46:56;;;;;;;7.30;3.33;;;;;;;5.00;83.10;96708.75;5058114;28;20454;-85
2021/03/16 08:49:24;;;;;;;5.00;3.00;;;;;;;4.89;82.55;96722.16;5057837;28;20437;-86
2021/03/16 08:51:51;;;;;;;12.80;3.20;;;;;;;5.06;83.84;96732.78;5045147;28;20461;-86
2021/03/16 08:54:24;;;;;;;7.10;2.90;;;;;;;5.22;81.12;96721.28;5039080;28;21090;-86
2021/03/16 08:56:50;;;;;;;5.70;3.57;;;;;;;5.01;81.00;96728.91;5039195;28;21041;-86
2021/03/16 08:59:19;;;;;;;5.60;2.67;;;;;;;5.05;82.63;96729.38;5039446;28;20485;-85
2021/03/16 09:01:49;;;;;;;14.27;3.10;;;;;;;5.23;82.47;96726.13;5041796;28;20928;-85
2021/03/16 09:04:15;;;;;;;11.03;2.90;;;;;;;5.39;81.86;96733.31;5040589;28;20426;-83
2021/03/16 09:06:42;;;;;;;10.17;2.90;;;;;;;5.54;81.33;96737.63;5040191;28;21051;-84
2021/03/16 09:09:10;;;;;;;15.70;3.13;;;;;;;5.64;80.28;96746.81;5040977;28;20551;-84
2021/03/16 09:11:41;;;;;;;10.47;3.30;;;;;;;5.55;79.51;96733.72;5041281;28;20432;-84
2021/03/16 09:14:09;;;;;;;9.17;3.30;;;;;;;5.44;80.38;96744.50;5040008;28;20573;-85
2021/03/16 09:16:49;;;;;;;13.30;3.40;;;;;;;5.31;80.57;96748.47;5040570;28;20463;-85
2021/03/16 09:19:16;;;;;;;9.33;3.23;;;;;;;5.25;81.69;96749.72;5041475;28;20443;-85
2021/03/16 09:21:54;;;;;;;11.23;3.47;;;;;;;5.15;82.90;96751.94;5041032;28;20967;-85
2021/03/16 09:24:24;;;;;;;6.63;2.80;;;;;;;5.24;82.00;96748.97;5042923;28;20447;-83
2021/03/16 09:26:52;;;;;;;14.33;4.80;;;;;;;5.28;82.85;96756.75;5040974;28;20459;-85
2021/03/16 09:29:18;;;;;;;13.40;4.03;;;;;;;5.28;82.96;96764.75;5040870;28;20974;-85
2021/03/16 09:31:45;;;;;;;5.70;3.77;;;;;;;4.95;84.36;96759.56;5039696;28;20410;-84
2021/03/16 09:34:13;;;;;;;6.80;3.70;;;;;;;4.90;85.83;96769.06;5040517;28;20529;-84
2021/03/16 09:36:39;;;;;;;9.30;3.73;;;;;;;4.68;86.58;96769.84;5054046;28;20441;-86
2021/03/16 09:39:05;;;;;;;6.90;3.20;;;;;;;4.66;88.13;96783.00;5058257;28;20451;-85
2021/03/16 09:41:31;;;;;;;8.27;4.10;;;;;;;4.70;88.82;96774.69;5057504;28;20515;-87
2021/03/16 09:43:58;;;;;;;11.53;3.67;;;;;;;4.83;88.78;96775.63;5057789;28;20427;-85
2021/03/16 09:46:24;;;;;;;6.93;3.53;;;;;;;4.95;88.80;96779.00;5041499;28;20459;-85
2021/03/16 09:48:55;;;;;;;5.77;3.70;;;;;;;4.85;89.01;96780.50;5039325;28;20432;-85
2021/03/16 09:51:24;;;;;;;5.87;3.57;;;;;;;4.70;89.52;96782.72;5039974;28;20525;-85
2021/03/16 09:53:52;;;;;;;9.23;3.50;;;;;;;4.68;90.70;96785.16;5039346;28;20491;-84
2021/03/16 09:56:19;;;;;;;14.23;4.63;;;;;;;4.77;91.18;96785.63;5039882;28;20467;-84
2021/03/16 09:58:48;;;;;;;8.30;3.60;;;;;;;4.93;90.87;96780.72;5039225;28;20428;-84
2021/03/16 10:01:19;;;;;;;7.43;3.97;;;;;;;4.69;90.23;96789.28;5039990;28;20508;-84
2021/03/16 10:03:54;;;;;;;7.60;3.50;;;;;;;4.59;91.25;96785.44;5039953;28;20534;-85
2021/03/16 10:06:33;;;;;;;12.93;4.40;;;;;;;4.55;92.29;96782.25;5040316;28;21018;-83
2021/03/16 10:09:00;;;;;;;8.87;3.63;;;;;;;4.70;91.95;96783.44;5040723;28;20570;-84
2021/03/16 10:11:33;;;;;;;14.33;3.93;;;;;;;4.85;91.70;96783.19;5039318;28;20433;-84
2021/03/16 10:13:59;;;;;;;19.77;4.57;;;;;;;4.95;90.96;96778.28;5038953;28;20958;-85
2021/03/16 10:16:29;;;;;;;13.90;4.17;;;;;;;5.02;90.66;96781.16;5039045;28;20468;-84
2021/03/16 10:18:55;;;;;;;8.23;4.40;;;;;;;5.11;90.67;96780.16;5038837;28;20469;-85
2021/03/16 10:21:28;;;;;;;5.60;3.70;;;;;;;5.12;89.57;96774.31;5037868;28;20455;-86
2021/03/16 10:23:57;;;;;;;11.43;4.60;;;;;;;5.14;88.25;96787.19;5039744;28;20402;-86
2021/03/16 10:26:24;;;;;;;7.60;4.37;;;;;;;5.19;88.69;96789.88;5038853;28;20461;-86
2021/03/16 10:28:50;;;;;;;12.90;5.40;;;;;;;5.27;89.03;96782.03;5038347;28;20447;-85
2021/03/16 10:31:17;;;;;;;12.43;4.30;;;;;;;5.36;88.91;96774.44;5039066;28;20522;-86
2021/03/16 10:33:45;;;;;;;15.03;5.00;;;;;;;5.46;87.97;96779.50;5038938;28;21007;-86
2021/03/16 10:36:12;;;;;;;15.30;4.83;;;;;;;5.55;85.22;96776.53;5038269;28;20850;-87
2021/03/16 10:38:38;;;;;;;14.30;4.37;;;;;;;5.67;86.83;96767.22;5038323;28;20455;-85
2021/03/16 10:41:05;;;;;;;13.63;4.30;;;;;;;5.58;85.30;96775.53;5038380;28;20484;-86
2021/03/16 10:43:31;;;;;;;6.57;3.90;;;;;;;5.75;85.46;96768.88;5038149;28;20513;-87
2021/03/16 10:45:58;;;;;;;21.53;4.83;;;;;;;5.99;86.33;96775.53;5038629;28;20506;-86
2021/03/16 10:48:25;;;;;;;12.57;4.23;;;;;;;5.68;83.75;96772.06;5039383;28;20525;-84
2021/03/16 10:50:51;;;;;;;13.73;4.37;;;;;;;5.59;83.57;96777.00;5040834;28;20513;-85
2021/03/16 10:53:18;;;;;;;19.10;3.97;;;;;;;5.71;83.87;96779.09;5042012;28;20503;-85
2021/03/16 10:55:44;;;;;;;15.17;4.80;;;;;;;5.75;81.53;96778.84;5045037;28;20899;-84
2021/03/16 10:58:11;;;;;;;13.30;5.27;;;;;;;5.62;81.40;96778.69;5042324;28;20524;-86
2021/03/16 11:00:38;;;;;;;16.13;4.30;;;;;;;5.48;80.03;96774.41;5042153;28;20505;-84
2021/03/16 11:03:04;;;;;;;6.50;3.97;;;;;;;5.55;80.13;96773.84;5043932;28;20525;-84
2021/03/16 11:05:31;;;;;;;10.43;4.50;;;;;;;5.73;79.04;96773.28;5041825;28;20447;-84
2021/03/16 11:07:58;;;;;;;8.47;4.70;;;;;;;5.59;78.40;96777.72;5041669;28;20430;-85
2021/03/16 11:10:24;;;;;;;10.03;4.57;;;;;;;5.70;79.54;96779.63;5041237;28;20461;-85
2021/03/16 11:12:50;;;;;;;13.43;4.37;;;;;;;5.59;79.68;96785.03;5041907;28;20467;-84
2021/03/16 11:15:17;;;;;;;11.23;4.17;;;;;;;5.63;78.68;96778.19;5043016;28;20974;-84
2021/03/16 11:17:44;;;;;;;12.33;3.90;;;;;;;5.78;80.03;96780.53;5041995;28;20458;-84
2021/03/16 11:20:12;;;;;;;17.23;4.90;;;;;;;5.99;79.26;96786.97;5041217;28;20418;-84
2021/03/16 11:22:38;;;;;;;8.67;4.60;;;;;;;6.03;78.58;96792.78;5042534;28;20449;-85
2021/03/16 11:25:05;;;;;;;6.57;3.43;;;;;;;6.06;77.64;96791.06;5043736;28;20944;-84
2021/03/16 11:27:32;;;;;;;9.30;4.13;;;;;;;6.15;77.83;96791.47;5041448;28;20486;-86
2021/03/16 11:29:58;;;;;;;10.07;4.20;;;;;;;6.17;77.27;96791.00;5040573;28;20550;-86
2021/03/16 11:32:25;;;;;;;11.30;4.20;;;;;;;6.03;74.61;96789.38;5046047;28;20505;-85
2021/03/16 11:34:51;;;;;;;7.57;4.60;;;;;;;6.03;76.29;96792.78;5042213;28;20481;-86
2021/03/16 11:37:17;;;;;;;10.57;4.10;;;;;;;5.98;76.21;96790.91;5041454;28;20545;-86
2021/03/16 11:39:45;;;;;;;8.60;4.30;;;;;;;6.08;75.71;96786.66;5042022;28;20422;-86
2021/03/16 11:42:11;;;;;;;7.73;3.83;;;;;;;6.15;76.35;96782.72;5040598;28;20981;-87